Time;durP1;ratioP1;P1;durP2;ratioP2;P2;SDS_P1;SDS_P2;PMS_P1;PMS_P2;Temp;Humidity;BMP_temperature;BMP_pressure;BME280_temperature;BME280_humidity;BME280_pressure;Samples;Min_cycle;Max_cycle;Signal;HPM_P1;HPM_P2
2023/02/05 00:02:08;;;;;;;0.60;0.60;;;0.30;99.90;;;;;;4421384;32;20146;-62
2023/02/05 00:04:35;;;;;;;0.50;0.50;;;0.40;99.90;;;;;;4423264;32;20068;-60
2023/02/05 00:07:00;;;;;;;7.32;1.40;;;0.40;99.90;;;;;;4407809;32;20513;-61
2023/02/05 00:09:27;;;;;;;0.75;0.75;;;0.30;99.90;;;;;;4410505;32;20065;-61
2023/02/05 00:11:53;;;;;;;0.50;0.50;;;0.30;99.90;;;;;;4410934;32;20140;-61
2023/02/05 00:14:19;;;;;;;0.43;0.43;;;0.30;99.90;;;;;;4427491;32;20581;-61
2023/02/05 00:16:44;;;;;;;0.50;0.50;;;0.30;99.90;;;;;;4427064;32;20093;-60
2023/02/05 00:19:10;;;;;;;1.35;1.02;;;0.20;99.90;;;;;;4425411;32;20124;-61
2023/02/05 00:21:35;;;;;;;0.55;0.55;;;0.20;99.90;;;;;;4423442;32;20081;-61
2023/02/05 00:24:01;;;;;;;0.77;0.77;;;0.10;99.90;;;;;;4424740;32;20445;-61
2023/02/05 00:26:26;;;;;;;5.72;1.48;;;0.10;99.90;;;;;;4425082;32;20065;-62
2023/02/05 00:28:53;;;;;;;0.85;0.85;;;0.10;99.90;;;;;;4425803;32;20094;-61
2023/02/05 00:31:21;;;;;;;0.40;0.40;;;0.10;99.90;;;;;;4424067;32;20513;-61
2023/02/05 00:33:47;;;;;;;0.68;0.68;;;0.20;99.90;;;;;;4409374;32;20092;-62
2023/02/05 00:36:13;;;;;;;0.73;0.73;;;0.20;99.90;;;;;;4424881;32;20074;-61
2023/02/05 00:38:41;;;;;;;1.87;0.60;;;0.00;99.90;;;;;;4411893;32;20069;-59
2023/02/05 00:41:07;;;;;;;0.62;0.62;;;0.00;99.90;;;;;;4410700;32;20138;-61
2023/02/05 00:43:33;;;;;;;0.50;0.50;;;0.00;99.90;;;;;;4423296;32;20575;-61
2023/02/05 00:45:59;;;;;;;0.90;0.90;;;0.00;99.90;;;;;;4426281;32;20053;-62
2023/02/05 00:48:24;;;;;;;1.20;1.15;;;0.00;99.90;;;;;;4423270;32;20168;-61
2023/02/05 00:50:51;;;;;;;1.23;1.12;;;-0.10;99.90;;;;;;4425933;32;20074;-62
2023/02/05 00:53:17;;;;;;;0.73;0.73;;;-0.10;99.90;;;;;;4411607;32;20123;-61
2023/02/05 00:55:43;;;;;;;0.73;0.73;;;-0.20;99.90;;;;;;4424425;32;20069;-61
2023/02/05 00:58:09;;;;;;;0.40;0.40;;;-0.20;99.90;;;;;;4425713;32;20086;-61
2023/02/05 01:00:34;;;;;;;0.55;0.55;;;-0.20;99.90;;;;;;4410130;32;20081;-60
2023/02/05 01:03:00;;;;;;;0.60;0.60;;;-0.20;99.90;;;;;;4426122;32;20057;-61
2023/02/05 01:05:26;;;;;;;0.60;0.60;;;-0.20;99.90;;;;;;4411994;32;20053;-62
2023/02/05 01:07:52;;;;;;;0.50;0.50;;;-0.20;99.90;;;;;;4410736;32;20615;-61
2023/02/05 01:10:18;;;;;;;0.40;0.40;;;-0.30;99.90;;;;;;4409887;32;20134;-61
2023/02/05 01:12:43;;;;;;;0.50;0.50;;;-0.40;99.90;;;;;;4411689;32;20429;-61
2023/02/05 01:15:12;;;;;;;0.45;0.45;;;-0.40;99.90;;;;;;4422520;32;20600;-61
2023/02/05 01:17:37;;;;;;;0.65;0.65;;;-0.20;99.90;;;;;;4425418;32;20086;-61
2023/02/05 01:20:04;;;;;;;17.85;1.50;;;-0.10;99.90;;;;;;4425215;32;20093;-60
2023/02/05 01:22:30;;;;;;;26.48;1.75;;;-0.10;99.90;;;;;;4423735;32;20498;-61
2023/02/05 01:24:55;;;;;;;0.60;0.60;;;-0.30;99.90;;;;;;4409292;32;20077;-60
2023/02/05 01:27:21;;;;;;;0.90;0.77;;;-0.30;99.90;;;;;;4424949;32;20074;-61
2023/02/05 01:29:46;;;;;;;0.60;0.60;;;-0.40;99.90;;;;;;4425710;32;20158;-59
2023/02/05 01:32:12;;;;;;;4.18;2.15;;;-0.40;99.90;;;;;;4425108;32;20085;-61
2023/02/05 01:34:37;;;;;;;0.50;0.50;;;-0.40;99.90;;;;;;4425412;32;20744;-61
2023/02/05 01:37:03;;;;;;;0.40;0.40;;;-0.50;99.90;;;;;;4424255;32;20140;-61
2023/02/05 01:39:28;;;;;;;0.60;0.60;;;-0.60;99.90;;;;;;4425700;32;20065;-61
2023/02/05 01:41:54;;;;;;;0.50;0.50;;;-0.60;99.90;;;;;;4421780;32;20097;-60
2023/02/05 01:44:23;;;;;;;0.60;0.60;;;-0.70;99.90;;;;;;4425242;32;20061;-61
2023/02/05 01:46:50;;;;;;;0.52;0.52;;;-0.70;99.90;;;;;;4409147;32;20121;-59
2023/02/05 01:49:29;;;;;;;0.45;0.45;;;-0.70;99.90;;;;;;4409236;32;20096;-60
2023/02/05 01:51:58;;;;;;;0.50;0.50;;;-0.70;99.90;;;;;;4409757;32;20355;-61
2023/02/05 01:54:27;;;;;;;0.50;0.50;;;-0.70;99.90;;;;;;4424839;32;20053;-61
2023/02/05 01:57:00;;;;;;;0.75;0.75;;;-0.80;99.90;;;;;;4410115;32;20459;-60
2023/02/05 01:59:28;;;;;;;0.50;0.50;;;-0.90;99.90;;;;;;4425853;32;20078;-61
2023/02/05 02:01:54;;;;;;;2.47;1.58;;;-1.00;99.90;;;;;;4423334;32;20092;-60
2023/02/05 02:04:33;;;;;;;0.68;0.68;;;-1.00;99.90;;;;;;4410969;32;20427;-60
2023/02/05 02:07:01;;;;;;;0.52;0.52;;;-1.00;99.90;;;;;;4409929;32;20082;-60
2023/02/05 02:09:27;;;;;;;0.68;0.68;;;-1.10;99.90;;;;;;4424275;32;20065;-61
2023/02/05 02:11:54;;;;;;;1.30;1.20;;;-1.00;99.90;;;;;;4423139;32;20105;-59
2023/02/05 02:14:20;;;;;;;0.70;0.70;;;-1.10;99.90;;;;;;4423224;32;20218;-60
2023/02/05 02:16:46;;;;;;;0.52;0.52;;;-1.10;99.90;;;;;;4410472;32;20124;-61
2023/02/05 02:19:35;;;;;;;1.08;1.05;;;-1.10;99.90;;;;;;4411374;32;20529;-61
2023/02/05 02:22:18;;;;;;;0.47;0.47;;;-1.20;99.90;;;;;;4411798;32;20230;-61
2023/02/05 02:25:07;;;;;;;0.98;0.98;;;-1.20;99.90;;;;;;4423948;32;20116;-61
2023/02/05 02:27:37;;;;;;;0.90;0.90;;;-1.30;99.90;;;;;;4412400;32;20085;-61
2023/02/05 02:30:22;;;;;;;0.68;0.68;;;-1.40;99.90;;;;;;4425412;32;20127;-61
2023/02/05 02:33:11;;;;;;;0.50;0.50;;;-1.50;99.90;;;;;;4422335;32;20093;-61
2023/02/05 02:36:08;;;;;;;1.33;1.23;;;-1.50;99.90;;;;;;4411680;32;20502;-62
2023/02/05 02:38:43;;;;;;;0.50;0.50;;;-1.40;99.90;;;;;;4413533;32;20078;-61
2023/02/05 02:41:16;;;;;;;1.48;1.35;;;-1.40;99.90;;;;;;4410932;32;20065;-61
2023/02/05 02:43:50;;;;;;;0.80;0.80;;;-1.30;99.90;;;;;;4408806;32;20064;-60
2023/02/05 02:46:21;;;;;;;0.50;0.50;;;-1.40;99.90;;;;;;4411389;32;20104;-61
2023/02/05 02:48:49;;;;;;;1.75;0.98;;;-1.60;99.90;;;;;;4424959;32;20467;-60
2023/02/05 02:51:16;;;;;;;0.75;0.75;;;-1.70;99.90;;;;;;4411345;32;20398;-61
2023/02/05 02:53:46;;;;;;;0.50;0.50;;;-1.50;99.90;;;;;;4424379;32;20065;-62
2023/02/05 02:56:13;;;;;;;0.60;0.60;;;-1.60;99.90;;;;;;4422931;32;20049;-60
2023/02/05 02:58:44;;;;;;;0.68;0.68;;;-1.70;99.90;;;;;;4410024;32;20078;-62
2023/02/05 03:01:11;;;;;;;1.30;1.20;;;-1.80;99.90;;;;;;4423733;32;20144;-62
2023/02/05 03:03:41;;;;;;;0.70;0.70;;;-1.70;99.90;;;;;;4409402;32;20118;-60
2023/02/05 03:06:10;;;;;;;0.57;0.57;;;-1.70;99.90;;;;;;4409783;32;20085;-60
2023/02/05 03:08:44;;;;;;;0.55;0.55;;;-1.60;99.90;;;;;;4424788;32;20088;-61
2023/02/05 03:11:12;;;;;;;1.10;1.10;;;-1.60;99.90;;;;;;4422176;32;20061;-61
2023/02/05 03:13:38;;;;;;;0.52;0.47;;;-1.60;99.90;;;;;;4409274;32;20094;-60
2023/02/05 03:16:04;;;;;;;1.45;1.35;;;-1.60;99.90;;;;;;4421862;32;20399;-61
2023/02/05 03:18:30;;;;;;;0.50;0.50;;;-1.50;99.90;;;;;;4408673;32;20081;-61
2023/02/05 03:21:11;;;;;;;0.70;0.70;;;-1.50;99.90;;;;;;4419516;32;20077;-61
2023/02/05 03:23:36;;;;;;;0.40;0.40;;;-1.50;99.90;;;;;;4418321;32;20437;-61
2023/02/05 03:26:02;;;;;;;0.50;0.50;;;-1.50;99.90;;;;;;4419146;32;20065;-61
2023/02/05 03:28:27;;;;;;;0.50;0.50;;;-1.50;99.90;;;;;;4422141;32;20453;-60
2023/02/05 03:31:02;;;;;;;0.68;0.68;;;-1.60;99.90;;;;;;4423046;32;20552;-60
2023/02/05 03:34:01;;;;;;;0.50;0.50;;;-1.60;99.90;;;;;;4424435;32;20192;-61
2023/02/05 03:36:35;;;;;;;0.50;0.50;;;-1.80;99.90;;;;;;4410550;32;20089;-60
2023/02/05 03:39:15;;;;;;;0.50;0.50;;;-1.80;99.90;;;;;;4424186;32;20065;-62
2023/02/05 03:41:59;;;;;;;0.90;0.90;;;-1.60;99.90;;;;;;4420518;32;20116;-60
2023/02/05 03:44:51;;;;;;;0.70;0.70;;;-1.50;99.90;;;;;;4422075;32;20210;-62
2023/02/05 03:47:31;;;;;;;3.58;0.95;;;-1.40;99.90;;;;;;4411068;32;20577;-63
2023/02/05 03:50:09;;;;;;;1.35;1.25;;;-1.50;99.90;;;;;;4407093;32;20501;-62
2023/02/05 03:52:41;;;;;;;0.52;0.52;;;-1.50;99.90;;;;;;4423022;32;20557;-62
2023/02/05 03:55:11;;;;;;;0.43;0.43;;;-1.50;99.90;;;;;;4423159;32;20111;-62
2023/02/05 03:57:41;;;;;;;0.60;0.60;;;-1.60;99.90;;;;;;4409515;32;20120;-61
2023/02/05 04:00:07;;;;;;;0.60;0.60;;;-1.80;99.90;;;;;;4423383;32;20587;-62
2023/02/05 04:02:33;;;;;;;0.50;0.50;;;-2.00;99.90;;;;;;4422059;32;20050;-62
2023/02/05 04:04:59;;;;;;;0.50;0.50;;;-2.10;99.90;;;;;;4423115;32;20081;-61
2023/02/05 04:07:24;;;;;;;0.40;0.40;;;-1.90;99.90;;;;;;4423709;32;20050;-61
2023/02/05 04:09:50;;;;;;;0.60;0.60;;;-1.90;99.90;;;;;;4423079;32;20128;-62
2023/02/05 04:12:15;;;;;;;0.50;0.50;;;-1.70;99.90;;;;;;4421534;32;20438;-61
2023/02/05 04:14:41;;;;;;;0.50;0.50;;;-1.70;99.90;;;;;;4409832;32;20069;-62
2023/02/05 04:17:06;;;;;;;0.40;0.40;;;-1.70;99.90;;;;;;4421105;32;20092;-61
2023/02/05 04:19:32;;;;;;;3.60;1.50;;;-1.80;99.90;;;;;;4409035;32;20105;-62
2023/02/05 04:21:57;;;;;;;0.88;0.88;;;-1.90;99.90;;;;;;4423073;32;20120;-62
2023/02/05 04:24:24;;;;;;;0.65;0.65;;;-1.90;99.90;;;;;;4423001;32;20074;-63
2023/02/05 04:26:50;;;;;;;0.60;0.60;;;-1.80;99.90;;;;;;4421402;32;20132;-60
2023/02/05 04:29:15;;;;;;;0.43;0.43;;;-1.90;99.90;;;;;;4424080;32;20107;-60
2023/02/05 04:31:41;;;;;;;0.50;0.50;;;-1.90;99.90;;;;;;4422753;32;20070;-60
2023/02/05 04:34:06;;;;;;;0.90;0.90;;;-1.90;99.90;;;;;;4405590;32;20078;-60
2023/02/05 04:36:31;;;;;;;0.90;0.90;;;-1.90;99.90;;;;;;4421781;32;20532;-60
2023/02/05 04:38:57;;;;;;;0.80;0.80;;;-1.80;99.90;;;;;;4422502;32;20091;-61
2023/02/05 04:41:22;;;;;;;0.50;0.50;;;-1.70;99.90;;;;;;4422204;32;20054;-61
2023/02/05 04:43:48;;;;;;;1.33;1.23;;;-1.60;99.90;;;;;;4421698;32;20077;-59
2023/02/05 04:46:13;;;;;;;0.50;0.50;;;-1.60;99.90;;;;;;4421277;32;20073;-60
2023/02/05 04:48:39;;;;;;;2.12;1.50;;;-1.70;99.90;;;;;;4423966;32;20086;-61
2023/02/05 04:51:07;;;;;;;0.80;0.80;;;-1.80;99.90;;;;;;4408649;32;20078;-61
2023/02/05 04:53:32;;;;;;;0.43;0.43;;;-1.90;99.90;;;;;;4407425;32;20191;-60
2023/02/05 04:56:15;;;;;;;0.90;0.90;;;-1.90;99.90;;;;;;4422853;32;20226;-61
2023/02/05 04:58:42;;;;;;;0.57;0.57;;;-1.80;99.90;;;;;;4426630;32;20097;-60
2023/02/05 05:01:12;;;;;;;1.08;0.98;;;-1.70;99.90;;;;;;4410656;32;20094;-60
2023/02/05 05:03:38;;;;;;;0.50;0.50;;;-1.60;99.90;;;;;;4412948;32;20152;-60
2023/02/05 05:06:05;;;;;;;0.40;0.40;;;-1.50;99.90;;;;;;4424370;32;20522;-60
2023/02/05 05:08:30;;;;;;;0.40;0.40;;;-1.60;99.90;;;;;;4410979;32;20085;-61
2023/02/05 05:10:56;;;;;;;0.60;0.60;;;-1.70;99.90;;;;;;4421756;32;20218;-60
2023/02/05 05:13:21;;;;;;;0.73;0.73;;;-1.80;99.90;;;;;;4423017;32;20053;-60
2023/02/05 05:15:55;;;;;;;0.45;0.45;;;-1.80;99.90;;;;;;4412475;32;20520;-59
2023/02/05 05:18:21;;;;;;;0.40;0.40;;;-1.90;99.90;;;;;;4411034;32;20132;-61
2023/02/05 05:20:47;;;;;;;0.52;0.52;;;-1.90;99.90;;;;;;4412181;32;20065;-61
2023/02/05 05:23:12;;;;;;;0.45;0.45;;;-1.80;99.90;;;;;;4425032;32;20143;-60
2023/02/05 05:25:42;;;;;;;0.40;0.40;;;-1.80;99.90;;;;;;4410394;32;20431;-60
2023/02/05 05:28:08;;;;;;;0.63;0.63;;;-1.70;99.90;;;;;;4411283;32;20058;-60
2023/02/05 05:30:33;;;;;;;0.95;0.88;;;-1.80;99.90;;;;;;4425188;32;20050;-60
2023/02/05 05:32:58;;;;;;;23.27;1.80;;;-1.80;99.90;;;;;;4425470;32;20513;-59
2023/02/05 05:35:24;;;;;;;0.55;0.55;;;-1.80;99.90;;;;;;4426578;32;20093;-60
2023/02/05 05:37:49;;;;;;;0.90;0.65;;;-1.60;99.90;;;;;;4424527;32;20113;-61
2023/02/05 05:44:00;;;;;;;0.50;0.50;;;-1.50;99.90;;;;;;4411679;32;20112;-61
2023/02/05 05:45:46;;;;;;;0.47;0.47;;;-1.50;99.90;;;;;;4412410;32;20536;-61
2023/02/05 05:48:11;;;;;;;1.08;0.98;;;-1.50;99.90;;;;;;4426946;32;20066;-60
2023/02/05 05:50:37;;;;;;;0.80;0.80;;;-1.50;99.90;;;;;;4428423;32;20533;-61
2023/02/05 05:53:02;;;;;;;0.50;0.50;;;-1.50;99.90;;;;;;4423803;32;20053;-60
2023/02/05 05:55:28;;;;;;;0.40;0.40;;;-1.60;99.90;;;;;;4426405;32;20132;-61
2023/02/05 05:57:53;;;;;;;0.50;0.50;;;-1.70;99.90;;;;;;4424119;32;20135;-61
2023/02/05 06:00:19;;;;;;;0.50;0.50;;;-1.70;99.90;;;;;;4425866;32;20517;-61
2023/02/05 06:02:44;;;;;;;1.83;0.73;;;-1.80;99.90;;;;;;4424754;32;20065;-59
2023/02/05 06:05:10;;;;;;;0.73;0.73;;;-1.80;99.90;;;;;;4424344;32;21269;-60
2023/02/05 06:07:35;;;;;;;1.05;1.05;;;-1.90;99.90;;;;;;4422492;32;20061;-60
2023/02/05 06:10:01;;;;;;;0.50;0.50;;;-2.00;99.90;;;;;;4425450;32;20089;-61
2023/02/05 06:12:26;;;;;;;0.40;0.40;;;-2.00;99.90;;;;;;4421824;32;20061;-60
2023/02/05 06:14:52;;;;;;;0.50;0.50;;;-2.10;99.90;;;;;;4425918;32;20570;-61
2023/02/05 06:17:17;;;;;;;0.55;0.55;;;-2.10;99.90;;;;;;4425067;32;20088;-61
2023/02/05 06:19:43;;;;;;;0.47;0.47;;;-2.20;99.90;;;;;;4424622;32;20058;-60
2023/02/05 06:22:08;;;;;;;0.50;0.50;;;-2.20;99.90;;;;;;4419930;32;20086;-61
2023/02/05 06:24:33;;;;;;;1.30;1.25;;;-2.20;99.90;;;;;;4423942;32;20078;-61
2023/02/05 06:26:59;;;;;;;0.52;0.52;;;-2.20;99.90;;;;;;4425833;32;20583;-61
2023/02/05 06:29:24;;;;;;;0.60;0.60;;;-2.20;99.90;;;;;;4424627;32;20057;-62
2023/02/05 06:31:50;;;;;;;0.55;0.55;;;-2.20;99.90;;;;;;4423396;32;20101;-61
2023/02/05 06:34:16;;;;;;;0.50;0.50;;;-2.10;99.90;;;;;;4424566;32;20073;-62
2023/02/05 06:36:41;;;;;;;1.27;1.27;;;-2.00;99.90;;;;;;4424167;32;20521;-60
2023/02/05 06:39:07;;;;;;;0.45;0.45;;;-1.90;99.90;;;;;;4425171;32;20070;-60
2023/02/05 06:41:32;;;;;;;0.50;0.50;;;-1.90;99.90;;;;;;4409994;32;20119;-61
2023/02/05 06:43:58;;;;;;;0.80;0.80;;;-2.00;99.90;;;;;;4423557;32;20077;-61
2023/02/05 06:46:23;;;;;;;0.50;0.50;;;-2.00;99.90;;;;;;4410285;32;20798;-61
2023/02/05 06:48:49;;;;;;;1.05;0.90;;;-2.00;99.90;;;;;;4425907;32;20104;-61
2023/02/05 06:51:14;;;;;;;0.60;0.60;;;-2.00;99.90;;;;;;4424341;32;20057;-62
2023/02/05 06:53:39;;;;;;;3.22;2.12;;;-2.00;99.90;;;;;;4424630;32;20069;-61
2023/02/05 06:56:05;;;;;;;0.57;0.57;;;-2.00;99.90;;;;;;4424854;32;20078;-60
2023/02/05 06:58:31;;;;;;;0.80;0.80;;;-2.00;99.90;;;;;;4424952;32;20054;-59
2023/02/05 07:00:56;;;;;;;0.50;0.50;;;-1.90;99.90;;;;;;4423502;32;20108;-61
2023/02/05 07:03:22;;;;;;;0.50;0.50;;;-1.80;99.90;;;;;;4424966;32;20065;-60
2023/02/05 07:05:47;;;;;;;0.50;0.50;;;-1.80;99.90;;;;;;4424257;32;20108;-63
2023/02/05 07:08:12;;;;;;;0.50;0.50;;;-1.70;99.90;;;;;;4423915;32;20101;-61
2023/02/05 07:10:38;;;;;;;0.60;0.60;;;-1.70;99.90;;;;;;4425677;32;20107;-61
2023/02/05 07:13:03;;;;;;;3.83;1.23;;;-1.80;99.90;;;;;;4422143;32;20094;-61
2023/02/05 07:15:29;;;;;;;0.50;0.50;;;-1.80;99.90;;;;;;4425360;32;20466;-62
2023/02/05 07:17:54;;;;;;;0.40;0.40;;;-1.80;99.90;;;;;;4423083;32;20069;-62
2023/02/05 07:20:22;;;;;;;0.50;0.50;;;-1.80;99.90;;;;;;4424460;32;20065;-61
2023/02/05 07:22:47;;;;;;;0.40;0.40;;;-1.80;99.90;;;;;;4422359;32;20156;-60
2023/02/05 07:25:12;;;;;;;0.50;0.50;;;-1.80;99.90;;;;;;4409373;32;20412;-61
2023/02/05 07:27:38;;;;;;;0.88;0.88;;;-1.80;99.90;;;;;;4424100;32;20062;-61
2023/02/05 07:30:04;;;;;;;0.40;0.40;;;-1.80;99.90;;;;;;4422721;32;20084;-60
2023/02/05 07:32:29;;;;;;;0.60;0.60;;;-1.80;99.90;;;;;;4424677;32;20469;-61
2023/02/05 07:34:55;;;;;;;0.47;0.47;;;-1.70;99.90;;;;;;4424785;32;20078;-60
2023/02/05 07:37:20;;;;;;;0.50;0.50;;;-1.60;99.90;;;;;;4424586;32;20592;-59
2023/02/05 07:39:46;;;;;;;24.75;2.70;;;-1.50;99.90;;;;;;4424756;32;20812;-61
2023/02/05 07:42:11;;;;;;;0.50;0.50;;;-1.50;99.90;;;;;;4423476;32;20077;-60
2023/02/05 07:44:37;;;;;;;0.60;0.60;;;-1.50;99.90;;;;;;4422198;32;20082;-60
2023/02/05 07:47:02;;;;;;;0.43;0.43;;;-1.60;99.90;;;;;;4423826;32;20089;-61
2023/02/05 07:49:28;;;;;;;0.50;0.50;;;-1.60;99.90;;;;;;4424806;32;20061;-61
2023/02/05 07:51:53;;;;;;;0.45;0.45;;;-1.50;99.90;;;;;;4423402;32;20168;-62
2023/02/05 07:54:18;;;;;;;0.77;0.77;;;-1.50;99.90;;;;;;4423823;32;20057;-61
2023/02/05 07:56:44;;;;;;;0.55;0.55;;;-1.60;99.90;;;;;;4423852;32;20177;-61
2023/02/05 07:59:10;;;;;;;0.40;0.40;;;-1.60;99.90;;;;;;4424997;32;20472;-61
2023/02/05 08:01:35;;;;;;;1.35;1.00;;;-1.50;99.90;;;;;;4424285;32;20102;-62
2023/02/05 08:04:01;;;;;;;2.83;1.30;;;-1.40;99.90;;;;;;4422328;32;20066;-61
2023/02/05 08:06:26;;;;;;;0.73;0.73;;;-1.30;99.90;;;;;;4408485;32;20085;-61
2023/02/05 08:08:52;;;;;;;0.50;0.50;;;-1.40;99.90;;;;;;4423342;32;20085;-61
2023/02/05 08:11:18;;;;;;;0.40;0.40;;;-1.40;99.90;;;;;;4423272;32;20895;-61
2023/02/05 08:13:44;;;;;;;5.78;1.73;;;-1.40;99.90;;;;;;4408396;32;20101;-60
2023/02/05 08:16:11;;;;;;;0.57;0.57;;;-1.40;99.90;;;;;;4409397;32;20453;-61
2023/02/05 08:18:36;;;;;;;0.40;0.40;;;-1.40;99.90;;;;;;4408871;32;20057;-62
2023/02/05 08:21:02;;;;;;;0.50;0.50;;;-1.40;99.90;;;;;;4409211;32;20109;-60
2023/02/05 08:23:28;;;;;;;0.62;0.62;;;-1.30;99.90;;;;;;4407459;32;20073;-61
2023/02/05 08:25:54;;;;;;;0.60;0.60;;;-1.20;99.90;;;;;;4423621;32;20066;-61
2023/02/05 08:28:20;;;;;;;0.50;0.50;;;-1.00;99.90;;;;;;4410213;32;20097;-61
2023/02/05 08:30:45;;;;;;;0.70;0.70;;;-0.90;99.90;;;;;;4425063;32;20089;-61
2023/02/05 08:33:11;;;;;;;0.50;0.50;;;-0.90;99.90;;;;;;4426095;32;20058;-61
2023/02/05 08:35:36;;;;;;;0.40;0.40;;;-0.90;99.90;;;;;;4425051;32;20069;-62
2023/02/05 08:38:02;;;;;;;0.60;0.60;;;-0.90;99.90;;;;;;4426450;32;20073;-61
2023/02/05 08:40:27;;;;;;;1.50;1.40;;;-0.80;99.90;;;;;;4424545;32;20073;-61
2023/02/05 08:42:56;;;;;;;0.55;0.55;;;-0.80;99.90;;;;;;4426217;32;20070;-61
2023/02/05 08:45:22;;;;;;;0.40;0.40;;;-0.80;99.90;;;;;;4424198;32;20116;-61
2023/02/05 08:47:47;;;;;;;0.40;0.40;;;-0.80;99.90;;;;;;4424532;32;20151;-60
2023/02/05 08:50:14;;;;;;;0.50;0.50;;;-0.70;99.90;;;;;;4425355;32;20535;-61
2023/02/05 08:52:39;;;;;;;0.50;0.50;;;-0.80;99.90;;;;;;4424597;32;20058;-62
2023/02/05 08:55:05;;;;;;;0.50;0.50;;;-0.70;99.90;;;;;;4425538;32;20490;-62
2023/02/05 08:57:30;;;;;;;2.72;2.25;;;-0.60;99.90;;;;;;4425065;32;20065;-63
2023/02/05 08:59:58;;;;;;;0.60;0.60;;;-0.60;99.90;;;;;;4425090;32;20092;-61
2023/02/05 09:02:23;;;;;;;0.60;0.60;;;-0.60;99.90;;;;;;4425158;32;20094;-61
2023/02/05 09:04:49;;;;;;;0.40;0.40;;;-0.60;99.90;;;;;;4425706;32;20528;-62
2023/02/05 09:07:15;;;;;;;0.55;0.55;;;-0.60;99.90;;;;;;4425834;32;20069;-60
2023/02/05 09:09:40;;;;;;;1.15;1.05;;;-0.60;99.90;;;;;;4409790;32;20136;-61
2023/02/05 09:12:06;;;;;;;0.45;0.45;;;-0.60;99.90;;;;;;4423733;32;20058;-62
2023/02/05 09:14:35;;;;;;;0.40;0.40;;;-0.50;99.90;;;;;;4425141;32;20078;-61
2023/02/05 09:17:02;;;;;;;0.65;0.65;;;-0.50;99.90;;;;;;4423952;32;20486;-61
2023/02/05 09:19:29;;;;;;;0.60;0.60;;;-0.50;99.90;;;;;;4424542;32;20415;-61
2023/02/05 09:21:54;;;;;;;0.40;0.40;;;-0.50;99.90;;;;;;4410143;32;20517;-60
2023/02/05 09:24:20;;;;;;;0.40;0.40;;;-0.40;99.90;;;;;;4422630;32;20065;-61
2023/02/05 09:26:45;;;;;;;0.40;0.40;;;-0.40;99.90;;;;;;4423656;32;20074;-62
2023/02/05 09:29:11;;;;;;;0.70;0.70;;;-0.30;99.90;;;;;;4425853;32;20065;-61
2023/02/05 09:31:36;;;;;;;0.73;0.73;;;-0.40;99.90;;;;;;4425986;32;20077;-61
2023/02/05 09:34:02;;;;;;;0.50;0.50;;;-0.30;99.90;;;;;;4426042;32;20061;-62
2023/02/05 09:36:27;;;;;;;0.40;0.40;;;-0.20;99.90;;;;;;4410437;32;20097;-62
2023/02/05 09:38:55;;;;;;;0.50;0.50;;;-0.10;99.90;;;;;;4425100;32;20518;-61
2023/02/05 09:41:29;;;;;;;0.60;0.60;;;-0.20;99.90;;;;;;4424591;32;20086;-61
2023/02/05 09:44:10;;;;;;;0.40;0.40;;;-0.20;99.90;;;;;;4409278;32;20132;-62
2023/02/05 09:46:38;;;;;;;0.47;0.47;;;-0.10;99.90;;;;;;4424136;32;20109;-62
2023/02/05 09:49:17;;;;;;;0.93;0.93;;;-0.10;99.90;;;;;;4423098;32;20097;-60
2023/02/05 09:51:46;;;;;;;0.40;0.40;;;-0.20;99.90;;;;;;4409907;32;20058;-61
2023/02/05 09:54:32;;;;;;;0.50;0.50;;;-0.10;99.90;;;;;;4411699;32;20078;-61
2023/02/05 09:57:03;;;;;;;0.50;0.50;;;0.00;99.90;;;;;;4410332;32;20085;-62
2023/02/05 09:59:30;;;;;;;0.50;0.50;;;0.00;99.90;;;;;;4424706;32;20080;-61
2023/02/05 10:01:58;;;;;;;0.55;0.55;;;0.00;99.90;;;;;;4410001;32;20132;-60
2023/02/05 10:04:25;;;;;;;0.50;0.50;;;0.10;99.90;;;;;;4425273;32;20077;-61
2023/02/05 10:07:03;;;;;;;0.50;0.50;;;0.10;99.90;;;;;;4412097;32;20476;-62
2023/02/05 10:10:10;;;;;;;9.57;1.77;;;0.20;99.90;;;;;;4422832;32;20081;-62
2023/02/05 10:13:15;;;;;;;0.40;0.40;;;0.30;99.90;;;;;;4412012;32;20087;-61
2023/02/05 10:15:59;;;;;;;0.47;0.47;;;0.40;99.90;;;;;;4413610;32;20066;-59
2023/02/05 10:18:49;;;;;;;0.40;0.40;;;0.40;99.90;;;;;;4424523;32;20157;-62
2023/02/05 10:21:36;;;;;;;145.05;2.25;;;0.40;99.90;;;;;;4413199;32;20095;-62
2023/02/05 10:24:33;;;;;;;0.50;0.50;;;0.60;99.90;;;;;;4425452;32;20131;-59
2023/02/05 10:27:22;;;;;;;1.30;1.20;;;0.60;99.90;;;;;;4423962;32;20509;-61
2023/02/05 10:30:09;;;;;;;0.52;0.52;;;0.50;99.90;;;;;;4422698;32;20549;-59
2023/02/05 10:32:53;;;;;;;0.60;0.60;;;0.40;99.90;;;;;;4411122;32;20089;-61
2023/02/05 10:35:24;;;;;;;0.50;0.50;;;0.50;99.90;;;;;;4423085;32;20327;-61
2023/02/05 10:37:51;;;;;;;;;;;0.60;99.90;;;;;;4398405;32;20077;-60
2023/02/05 10:40:20;;;;;;;0.50;0.50;;;0.70;99.90;;;;;;4424226;32;19973;-61
2023/02/05 10:42:50;;;;;;;0.50;0.50;;;0.80;99.90;;;;;;4409651;32;20132;-61
2023/02/05 10:45:22;;;;;;;0.62;0.62;;;0.90;99.90;;;;;;4411066;32;20049;-61
2023/02/05 10:48:20;;;;;;;0.40;0.40;;;0.80;99.90;;;;;;4411273;32;20081;-60
2023/02/05 10:51:12;;;;;;;0.50;0.50;;;0.90;99.90;;;;;;4414256;32;20132;-61
2023/02/05 10:53:38;;;;;;;0.43;0.43;;;0.90;99.90;;;;;;4400510;32;20073;-60
2023/02/05 10:56:05;;;;;;;0.40;0.40;;;0.90;99.90;;;;;;4410559;32;20139;-61
2023/02/05 10:58:46;;;;;;;0.50;0.50;;;1.00;99.90;;;;;;4410501;32;20081;-61
2023/02/05 11:01:17;;;;;;;0.40;0.40;;;0.90;99.90;;;;;;4409856;32;20069;-61
2023/02/05 11:03:52;;;;;;;0.75;0.75;;;1.00;99.90;;;;;;4423131;32;20402;-61
2023/02/05 11:06:19;;;;;;;0.40;0.40;;;1.10;99.90;;;;;;4410408;32;20573;-62
2023/02/05 11:08:46;;;;;;;1.10;0.90;;;1.20;99.90;;;;;;4423904;32;20085;-61
2023/02/05 11:11:28;;;;;;;0.75;0.75;;;1.30;99.90;;;;;;4410974;32;20065;-60
2023/02/05 11:13:59;;;;;;;0.80;0.80;;;1.30;99.90;;;;;;4397884;32;20575;-64
2023/02/05 11:16:43;;;;;;;0.40;0.40;;;1.20;99.90;;;;;;4409938;32;20078;-62
2023/02/05 11:19:29;;;;;;;2.05;0.90;;;1.40;99.90;;;;;;4411184;32;20451;-62
2023/02/05 11:21:57;;;;;;;0.40;0.40;;;1.40;99.90;;;;;;4399086;32;20082;-60
2023/02/05 11:24:29;;;;;;;0.40;0.40;;;1.50;99.90;;;;;;4409924;32;20080;-64
2023/02/05 11:27:24;;;;;;;0.40;0.40;;;1.60;99.90;;;;;;4409734;32;20110;-60
2023/02/05 11:29:49;;;;;;;1.30;0.85;;;1.60;99.90;;;;;;4400204;32;20138;-62
2023/02/05 11:32:34;;;;;;;0.52;0.52;;;1.70;99.90;;;;;;4422613;32;20540;-62
2023/02/05 11:35:18;;;;;;;0.40;0.40;;;1.70;99.90;;;;;;4409575;32;20065;-61
2023/02/05 11:37:46;;;;;;;0.40;0.40;;;1.60;99.90;;;;;;4406977;32;20140;-61
2023/02/05 11:40:22;;;;;;;0.50;0.50;;;1.60;99.90;;;;;;4408355;32;20073;-61
2023/02/05 11:42:58;;;;;;;0.40;0.40;;;1.70;99.90;;;;;;4405545;32;120109;-61
2023/02/05 11:45:24;;;;;;;0.50;0.50;;;1.90;99.90;;;;;;4419645;32;20512;-61
2023/02/05 11:47:50;;;;;;;0.52;0.52;;;1.80;99.90;;;;;;4421499;32;20057;-61
2023/02/05 11:50:24;;;;;;;0.50;0.50;;;1.70;99.90;;;;;;4421940;32;20519;-61
2023/02/05 11:52:50;;;;;;;0.50;0.50;;;1.70;99.90;;;;;;4409183;32;20520;-60
2023/02/05 11:55:33;;;;;;;0.73;0.73;;;2.00;99.90;;;;;;4423439;32;20057;-61
2023/02/05 11:58:01;;;;;;;1.37;0.90;;;2.10;99.90;;;;;;4424773;32;20057;-61
2023/02/05 12:00:27;;;;;;;0.50;0.50;;;2.20;99.90;;;;;;4423936;32;20496;-62
2023/02/05 12:03:17;;;;;;;0.95;0.95;;;2.30;99.90;;;;;;4408381;32;20162;-62
2023/02/05 12:05:50;;;;;;;0.52;0.52;;;2.30;99.90;;;;;;4414329;32;20077;-61
2023/02/05 12:08:31;;;;;;;0.40;0.40;;;2.30;99.90;;;;;;4424170;32;20077;-61
2023/02/05 12:11:21;;;;;;;0.88;0.88;;;2.20;99.90;;;;;;4412890;32;20110;-61
2023/02/05 12:14:10;;;;;;;0.50;0.50;;;2.30;99.90;;;;;;4403291;32;20148;-61
2023/02/05 12:16:47;;;;;;;0.80;0.80;;;2.10;99.90;;;;;;4425655;32;20077;-61
2023/02/05 12:19:23;;;;;;;0.50;0.50;;;2.20;99.90;;;;;;4426437;32;20077;-59
2023/02/05 12:21:55;;;;;;;0.52;0.52;;;2.50;99.90;;;;;;4409627;32;20160;-59
2023/02/05 12:24:44;;;;;;;0.60;0.60;;;2.50;99.90;;;;;;4409947;32;20530;-62
2023/02/05 12:27:49;;;;;;;0.40;0.40;;;2.60;99.90;;;;;;4413214;32;20080;-62
2023/02/05 12:30:26;;;;;;;0.50;0.50;;;2.80;99.90;;;;;;4403713;32;20081;-61
2023/02/05 12:33:19;;;;;;;0.70;0.70;;;2.70;99.90;;;;;;4424803;32;20065;-61
2023/02/05 12:36:18;;;;;;;0.80;0.80;;;2.90;99.90;;;;;;4412573;32;20101;-61
2023/02/05 12:39:03;;;;;;;0.40;0.40;;;3.10;99.90;;;;;;4412303;32;20248;-61
2023/02/05 12:41:35;;;;;;;0.50;0.50;;;3.00;99.90;;;;;;4425373;32;20077;-60
2023/02/05 12:44:16;;;;;;;0.30;0.30;;;3.00;99.90;;;;;;4411750;32;20068;-61
2023/02/05 12:46:51;;;;;;;;;;;2.70;99.90;;;;;;4411424;32;20073;-62
2023/02/05 12:49:47;;;;;;;0.40;0.40;;;2.80;99.90;;;;;;4425097;32;19956;-62
2023/02/05 12:52:39;;;;;;;0.40;0.40;;;2.80;99.90;;;;;;4409873;32;20122;-60
2023/02/05 12:55:27;;;;;;;0.40;0.40;;;2.60;99.90;;;;;;4414188;32;20098;-61
2023/02/05 12:57:57;;;;;;;0.40;0.40;;;2.50;99.90;;;;;;4410912;32;20109;-61
2023/02/05 13:00:28;;;;;;;0.75;0.75;;;2.50;99.90;;;;;;4425224;32;20057;-63
2023/02/05 13:03:22;;;;;;;0.40;0.40;;;2.70;99.90;;;;;;4410815;32;20140;-62
2023/02/05 13:06:17;;;;;;;0.50;0.50;;;2.90;99.90;;;;;;4415443;32;20097;-60
2023/02/05 13:08:48;;;;;;;0.40;0.40;;;2.80;99.90;;;;;;4425400;32;20110;-61
2023/02/05 13:11:24;;;;;;;0.43;0.43;;;2.70;99.90;;;;;;4425233;32;20101;-61